This is the latest recevied weather packets stored in our database for station/object N7IGG. If no packets are shown the sender has not sent any weather packets the latest 1 day(s).
| Time | Temp. | Humidity | Pressure | Rain* | Wind** | Luminosity | Snow |
|---|---|---|---|---|---|---|---|
| 1778048527 | 13.33° C | 88% | 1016.5 hPa | 0 mm | 0.89 m/s, 156° | 0 W/m² | - |
| 1778048222 | 13.33° C | 87% | 1016.6 hPa | 0 mm | 1.34 m/s, 191° | 0 W/m² | - |
| 1778047920 | 13.33° C | 87% | 1016.5 hPa | 0 mm | 0.89 m/s, 173° | 0 W/m² | - |
| 1778047619 | 13.89° C | 86% | 1016.5 hPa | 0 mm | 1.34 m/s, 188° | 0 W/m² | - |
| 1778047315 | 13.89° C | 86% | 1016.5 hPa | 0 mm | 1.34 m/s, 187° | 0 W/m² | - |
| 1778047012 | 13.89° C | 85% | 1016.5 hPa | 0 mm | 0.89 m/s, 190° | 0 W/m² | - |
| 1778046709 | 14.44° C | 84% | 1016.3 hPa | 0 mm | 0.89 m/s, 191° | 0 W/m² | - |
| 1778046406 | 14.44° C | 84% | 1016.3 hPa | 0 mm | 1.34 m/s, 197° | 0 W/m² | - |
| 1778046102 | 14.44° C | 83% | 1016.2 hPa | 0 mm | 0.89 m/s, 180° | 0 W/m² | - |
| 1778045800 | 15° C | 83% | 1016.1 hPa | 0 mm | 1.79 m/s, 200° | 0 W/m² | - |
| 1778045498 | 15° C | 83% | 1016.2 hPa | 0 mm | 0 m/s | 0 W/m² | - |
| 1778045196 | 15° C | 82% | 1016 hPa | 0 mm | 1.79 m/s, 210° | 0 W/m² | - |
| 1778044894 | 15° C | 82% | 1015.9 hPa | 0 mm | 1.34 m/s, 175° | 0 W/m² | - |
| 1778044591 | 15° C | 82% | 1016 hPa | 0 mm | 0.89 m/s, 108° | 0 W/m² | - |
| 1778044287 | 15.56° C | 82% | 1015.9 hPa | 0 mm | 0.45 m/s, 126° | 0 W/m² | - |
| 1778043985 | 15.56° C | 82% | 1016 hPa | 0 mm | 1.34 m/s, 190° | 0 W/m² | - |
| 1778043682 | 15.56° C | 82% | 1015.9 hPa | 0 mm | 0 m/s | 0 W/m² | - |
| 1778043379 | 15.56° C | 82% | 1015.8 hPa | 0 mm | 0 m/s | 0 W/m² | - |
| 1778043075 | 15.56° C | 82% | 1015.7 hPa | 0 mm | 0.89 m/s, 103° | 0 W/m² | - |
| 1778042773 | 15.56° C | 82% | 1015.7 hPa | 0 mm | 0.89 m/s, 201° | 0 W/m² | - |
| 1778042469 | 16.11° C | 82% | 1015.7 hPa | 0 mm | 0.89 m/s, 114° | 0 W/m² | - |
| 1778042167 | 16.11° C | 82% | 1015.7 hPa | 0 mm | 1.79 m/s, 190° | 0 W/m² | - |
| 1778041865 | 16.11° C | 82% | 1015.6 hPa | 0 mm | 0.89 m/s, 176° | 0 W/m² | - |
| 1778041564 | 16.11° C | 82% | 1015.6 hPa | 0 mm | 1.79 m/s, 202° | 0 W/m² | - |
| 1778041262 | 15.56° C | 82% | 1015.5 hPa | 0 mm | 0.89 m/s, 147° | 0 W/m² | - |
* Rain latest hour (hover to see other rain measurements)
** Current wind speed in m/s (hover to see current wind gust speed)